KCDI

Cambridge Municipal Airport

Cambridge, Ohio, USA
METAR KCDI 201555Z AUTO 00000KT 10SM CLR 25/19 A3003 RMK AO2 T02530188
Observed Flight Rules
Aug-20 @ 15:55 UTC (30 minutes ago) Visual Flight Rules
Visibility Clouds
10 miles
  • Clear skies
Temperatures Readings
Current 25°C / 77°F
Dewpoint 19°C / 66°F
Humidity 69%
Altimeter 30.03" Hg
Pressure 1017 hPa
Elevation 244
METAR KCDI 201555Z AUTO 00000KT 10SM CLR 25/19 A3003 RMK AO2 T02530188
Observed Flight Rules
Aug-20 @ 15:55 UTC
(30 minutes ago)
VFR
Clouds
  • Clear skies
Temperature Dewpoint
25°C / 77°F 19°C / 66°F
Humidity Altimeter Pressure
69% 30.03" Hg 1017 hPa